sensor_id;sensor_type;location;lat;lon;timestamp;P1;durP1;ratioP1;P2;durP2;ratioP2
83151;SDS011;73381;58.502;8.624;2024-01-30T00:00:30;0.00;;;0.00;;
83151;SDS011;73381;58.502;8.624;2024-01-30T00:03:41;0.00;;;0.00;;
83151;SDS011;73381;58.502;8.624;2024-01-30T00:06:52;0.00;;;0.00;;
83151;SDS011;73381;58.502;8.624;2024-01-30T00:10:05;0.00;;;0.00;;
83151;SDS011;73381;58.502;8.624;2024-01-30T00:16:19;0.00;;;0.00;;
83151;SDS011;73381;58.502;8.624;2024-01-30T00:19:23;0.00;;;0.00;;
83151;SDS011;73381;58.502;8.624;2024-01-30T00:26:02;0.00;;;0.00;;
83151;SDS011;73381;58.502;8.624;2024-01-30T00:32:26;0.00;;;0.00;;
83151;SDS011;73381;58.502;8.624;2024-01-30T00:35:43;0.00;;;0.00;;
83151;SDS011;73381;58.502;8.624;2024-01-30T00:39:21;0.00;;;0.00;;
83151;SDS011;73381;58.502;8.624;2024-01-30T00:42:30;0.00;;;0.00;;
83151;SDS011;73381;58.502;8.624;2024-01-30T00:45:43;0.10;;;0.00;;
83151;SDS011;73381;58.502;8.624;2024-01-30T00:48:45;0.00;;;0.00;;
83151;SDS011;73381;58.502;8.624;2024-01-30T00:51:47;0.00;;;0.00;;
83151;SDS011;73381;58.502;8.624;2024-01-30T00:54:53;0.00;;;0.00;;
83151;SDS011;73381;58.502;8.624;2024-01-30T00:57:59;1.40;;;1.30;;
83151;SDS011;73381;58.502;8.624;2024-01-30T01:01:06;0.00;;;0.00;;
83151;SDS011;73381;58.502;8.624;2024-01-30T01:04:53;0.00;;;0.00;;
83151;SDS011;73381;58.502;8.624;2024-01-30T01:07:56;0.00;;;0.00;;
83151;SDS011;73381;58.502;8.624;2024-01-30T01:11:11;0.00;;;0.00;;
83151;SDS011;73381;58.502;8.624;2024-01-30T01:14:27;0.28;;;0.08;;
83151;SDS011;73381;58.502;8.624;2024-01-30T01:17:47;0.50;;;0.20;;
83151;SDS011;73381;58.502;8.624;2024-01-30T01:20:50;0.47;;;0.22;;
83151;SDS011;73381;58.502;8.624;2024-01-30T01:24:05;0.30;;;0.13;;
83151;SDS011;73381;58.502;8.624;2024-01-30T01:27:07;0.77;;;0.30;;
83151;SDS011;73381;58.502;8.624;2024-01-30T01:30:12;0.20;;;0.20;;
83151;SDS011;73381;58.502;8.624;2024-01-30T01:33:28;0.10;;;0.10;;
83151;SDS011;73381;58.502;8.624;2024-01-30T01:36:58;0.30;;;0.10;;
83151;SDS011;73381;58.502;8.624;2024-01-30T01:43:50;0.45;;;0.15;;
83151;SDS011;73381;58.502;8.624;2024-01-30T01:46:58;0.10;;;0.10;;
83151;SDS011;73381;58.502;8.624;2024-01-30T01:50:00;0.28;;;0.20;;
83151;SDS011;73381;58.502;8.624;2024-01-30T01:53:11;0.10;;;0.10;;
83151;SDS011;73381;58.502;8.624;2024-01-30T01:56:18;0.00;;;0.00;;
83151;SDS011;73381;58.502;8.624;2024-01-30T01:59:22;0.40;;;0.20;;
83151;SDS011;73381;58.502;8.624;2024-01-30T02:02:56;0.38;;;0.15;;
83151;SDS011;73381;58.502;8.624;2024-01-30T02:06:07;0.73;;;0.30;;
83151;SDS011;73381;58.502;8.624;2024-01-30T02:09:33;0.82;;;0.30;;
83151;SDS011;73381;58.502;8.624;2024-01-30T02:12:40;0.45;;;0.13;;
83151;SDS011;73381;58.502;8.624;2024-01-30T02:15:48;0.60;;;0.22;;
83151;SDS011;73381;58.502;8.624;2024-01-30T02:22:23;0.60;;;0.22;;
83151;SDS011;73381;58.502;8.624;2024-01-30T02:28:44;1.23;;;0.32;;
83151;SDS011;73381;58.502;8.624;2024-01-30T02:31:46;0.88;;;0.30;;
83151;SDS011;73381;58.502;8.624;2024-01-30T02:34:51;0.25;;;0.20;;
83151;SDS011;73381;58.502;8.624;2024-01-30T02:37:55;1.42;;;0.38;;
83151;SDS011;73381;58.502;8.624;2024-01-30T02:41:07;0.68;;;0.30;;
83151;SDS011;73381;58.502;8.624;2024-01-30T02:44:20;0.88;;;0.35;;
83151;SDS011;73381;58.502;8.624;2024-01-30T02:47:35;0.28;;;0.10;;
83151;SDS011;73381;58.502;8.624;2024-01-30T02:50:57;0.77;;;0.35;;
83151;SDS011;73381;58.502;8.624;2024-01-30T02:54:00;0.73;;;0.40;;
83151;SDS011;73381;58.502;8.624;2024-01-30T02:57:02;0.63;;;0.20;;
83151;SDS011;73381;58.502;8.624;2024-01-30T03:00:20;0.60;;;0.20;;
83151;SDS011;73381;58.502;8.624;2024-01-30T03:03:24;0.05;;;0.05;;
83151;SDS011;73381;58.502;8.624;2024-01-30T03:06:45;1.75;;;0.30;;
83151;SDS011;73381;58.502;8.624;2024-01-30T03:09:53;0.47;;;0.20;;
83151;SDS011;73381;58.502;8.624;2024-01-30T03:12:55;0.00;;;0.00;;
83151;SDS011;73381;58.502;8.624;2024-01-30T03:15:57;0.00;;;0.00;;
83151;SDS011;73381;58.502;8.624;2024-01-30T03:19:00;0.00;;;0.00;;
83151;SDS011;73381;58.502;8.624;2024-01-30T03:22:16;0.00;;;0.00;;
83151;SDS011;73381;58.502;8.624;2024-01-30T03:25:24;0.00;;;0.00;;
83151;SDS011;73381;58.502;8.624;2024-01-30T03:28:30;0.00;;;0.00;;
83151;SDS011;73381;58.502;8.624;2024-01-30T03:31:33;0.00;;;0.00;;
83151;SDS011;73381;58.502;8.624;2024-01-30T03:34:50;0.00;;;0.00;;
83151;SDS011;73381;58.502;8.624;2024-01-30T03:37:51;0.00;;;0.00;;
83151;SDS011;73381;58.502;8.624;2024-01-30T03:40:55;0.00;;;0.00;;
83151;SDS011;73381;58.502;8.624;2024-01-30T03:44:01;0.00;;;0.00;;
83151;SDS011;73381;58.502;8.624;2024-01-30T03:47:11;0.00;;;0.00;;
83151;SDS011;73381;58.502;8.624;2024-01-30T03:50:12;1.38;;;0.35;;
83151;SDS011;73381;58.502;8.624;2024-01-30T03:53:20;0.77;;;0.40;;
83151;SDS011;73381;58.502;8.624;2024-01-30T03:56:51;3.45;;;0.57;;
83151;SDS011;73381;58.502;8.624;2024-01-30T04:00:01;3.05;;;0.68;;
83151;SDS011;73381;58.502;8.624;2024-01-30T04:03:04;1.25;;;0.35;;
83151;SDS011;73381;58.502;8.624;2024-01-30T04:06:24;2.88;;;0.80;;
83151;SDS011;73381;58.502;8.624;2024-01-30T04:12:40;3.63;;;0.82;;
83151;SDS011;73381;58.502;8.624;2024-01-30T04:15:42;1.77;;;0.50;;
83151;SDS011;73381;58.502;8.624;2024-01-30T04:18:43;2.60;;;0.70;;
83151;SDS011;73381;58.502;8.624;2024-01-30T04:21:47;1.50;;;0.40;;
83151;SDS011;73381;58.502;8.624;2024-01-30T04:25:04;3.78;;;0.50;;
83151;SDS011;73381;58.502;8.624;2024-01-30T04:32:01;1.17;;;0.30;;
83151;SDS011;73381;58.502;8.624;2024-01-30T04:35:03;3.33;;;1.20;;
83151;SDS011;73381;58.502;8.624;2024-01-30T04:38:11;3.63;;;1.23;;
83151;SDS011;73381;58.502;8.624;2024-01-30T04:44:36;3.85;;;0.73;;
83151;SDS011;73381;58.502;8.624;2024-01-30T04:48:18;2.83;;;0.47;;
83151;SDS011;73381;58.502;8.624;2024-01-30T04:51:20;2.28;;;0.60;;
83151;SDS011;73381;58.502;8.624;2024-01-30T04:54:25;1.80;;;0.52;;
83151;SDS011;73381;58.502;8.624;2024-01-30T04:57:43;1.30;;;0.40;;
83151;SDS011;73381;58.502;8.624;2024-01-30T05:00:45;2.53;;;0.50;;
83151;SDS011;73381;58.502;8.624;2024-01-30T05:10:49;3.67;;;0.80;;
83151;SDS011;73381;58.502;8.624;2024-01-30T05:13:51;1.10;;;0.30;;
83151;SDS011;73381;58.502;8.624;2024-01-30T05:16:53;3.25;;;3.05;;
83151;SDS011;73381;58.502;8.624;2024-01-30T05:19:55;0.98;;;0.40;;
83151;SDS011;73381;58.502;8.624;2024-01-30T05:26:12;4.68;;;1.10;;
83151;SDS011;73381;58.502;8.624;2024-01-30T05:29:14;5.93;;;1.33;;
83151;SDS011;73381;58.502;8.624;2024-01-30T05:32:22;3.63;;;0.68;;
83151;SDS011;73381;58.502;8.624;2024-01-30T05:35:35;3.30;;;0.60;;
83151;SDS011;73381;58.502;8.624;2024-01-30T05:38:45;3.05;;;0.82;;
83151;SDS011;73381;58.502;8.624;2024-01-30T05:41:57;3.92;;;0.55;;
83151;SDS011;73381;58.502;8.624;2024-01-30T05:48:11;5.35;;;1.45;;
83151;SDS011;73381;58.502;8.624;2024-01-30T05:51:26;7.78;;;2.00;;
83151;SDS011;73381;58.502;8.624;2024-01-30T05:54:28;4.43;;;0.77;;
83151;SDS011;73381;58.502;8.624;2024-01-30T05:57:32;2.88;;;0.85;;
83151;SDS011;73381;58.502;8.624;2024-01-30T06:00:34;4.85;;;0.90;;
83151;SDS011;73381;58.502;8.624;2024-01-30T06:03:36;3.70;;;0.82;;
83151;SDS011;73381;58.502;8.624;2024-01-30T06:06:38;4.90;;;1.35;;
83151;SDS011;73381;58.502;8.624;2024-01-30T06:09:41;2.30;;;0.85;;
83151;SDS011;73381;58.502;8.624;2024-01-30T06:12:44;2.15;;;0.70;;
83151;SDS011;73381;58.502;8.624;2024-01-30T06:15:46;4.00;;;1.15;;
83151;SDS011;73381;58.502;8.624;2024-01-30T06:22:07;0.10;;;0.10;;
83151;SDS011;73381;58.502;8.624;2024-01-30T06:25:15;1.17;;;0.20;;
83151;SDS011;73381;58.502;8.624;2024-01-30T06:28:36;0.43;;;0.20;;
83151;SDS011;73381;58.502;8.624;2024-01-30T06:31:41;0.63;;;0.28;;
83151;SDS011;73381;58.502;8.624;2024-01-30T06:34:43;0.73;;;0.13;;
83151;SDS011;73381;58.502;8.624;2024-01-30T06:37:45;0.85;;;0.30;;
83151;SDS011;73381;58.502;8.624;2024-01-30T06:40:47;0.55;;;0.13;;
83151;SDS011;73381;58.502;8.624;2024-01-30T06:43:53;0.63;;;0.20;;
83151;SDS011;73381;58.502;8.624;2024-01-30T06:46:55;1.33;;;0.47;;
83151;SDS011;73381;58.502;8.624;2024-01-30T06:49:57;1.02;;;0.40;;
83151;SDS011;73381;58.502;8.624;2024-01-30T06:53:02;0.35;;;0.10;;
83151;SDS011;73381;58.502;8.624;2024-01-30T06:56:04;0.38;;;0.10;;
83151;SDS011;73381;58.502;8.624;2024-01-30T06:59:12;0.10;;;0.10;;
83151;SDS011;73381;58.502;8.624;2024-01-30T07:02:19;0.35;;;0.10;;
83151;SDS011;73381;58.502;8.624;2024-01-30T07:05:29;0.05;;;0.00;;
83151;SDS011;73381;58.502;8.624;2024-01-30T07:08:31;0.82;;;0.20;;
83151;SDS011;73381;58.502;8.624;2024-01-30T07:11:33;1.08;;;0.22;;
83151;SDS011;73381;58.502;8.624;2024-01-30T07:14:36;0.50;;;0.20;;
83151;SDS011;73381;58.502;8.624;2024-01-30T07:17:42;1.30;;;0.52;;
83151;SDS011;73381;58.502;8.624;2024-01-30T07:20:44;0.47;;;0.47;;
83151;SDS011;73381;58.502;8.624;2024-01-30T07:23:46;1.15;;;0.57;;
83151;SDS011;73381;58.502;8.624;2024-01-30T07:26:48;2.10;;;0.75;;
83151;SDS011;73381;58.502;8.624;2024-01-30T07:29:51;1.52;;;0.70;;
83151;SDS011;73381;58.502;8.624;2024-01-30T07:32:52;2.30;;;0.82;;
83151;SDS011;73381;58.502;8.624;2024-01-30T07:35:54;1.70;;;0.70;;
83151;SDS011;73381;58.502;8.624;2024-01-30T07:38:56;1.17;;;0.45;;
83151;SDS011;73381;58.502;8.624;2024-01-30T07:41:58;1.50;;;0.57;;
83151;SDS011;73381;58.502;8.624;2024-01-30T07:45:02;1.33;;;0.88;;
83151;SDS011;73381;58.502;8.624;2024-01-30T07:48:05;2.80;;;0.82;;
83151;SDS011;73381;58.502;8.624;2024-01-30T07:51:08;2.70;;;0.60;;
83151;SDS011;73381;58.502;8.624;2024-01-30T07:54:11;0.55;;;0.22;;
83151;SDS011;73381;58.502;8.624;2024-01-30T07:57:14;0.70;;;0.30;;
83151;SDS011;73381;58.502;8.624;2024-01-30T08:00:18;1.15;;;0.50;;
83151;SDS011;73381;58.502;8.624;2024-01-30T08:03:20;1.35;;;0.55;;
83151;SDS011;73381;58.502;8.624;2024-01-30T08:06:23;0.55;;;0.40;;
83151;SDS011;73381;58.502;8.624;2024-01-30T08:09:24;0.55;;;0.50;;
83151;SDS011;73381;58.502;8.624;2024-01-30T08:12:27;2.63;;;0.70;;
83151;SDS011;73381;58.502;8.624;2024-01-30T08:15:30;1.08;;;0.60;;
83151;SDS011;73381;58.502;8.624;2024-01-30T08:18:33;1.58;;;0.60;;
83151;SDS011;73381;58.502;8.624;2024-01-30T08:21:35;0.00;;;0.00;;
83151;SDS011;73381;58.502;8.624;2024-01-30T08:24:42;0.70;;;0.20;;
83151;SDS011;73381;58.502;8.624;2024-01-30T08:27:44;0.60;;;0.20;;
83151;SDS011;73381;58.502;8.624;2024-01-30T08:30:47;0.63;;;0.22;;
83151;SDS011;73381;58.502;8.624;2024-01-30T08:33:50;0.50;;;0.15;;
83151;SDS011;73381;58.502;8.624;2024-01-30T08:37:08;0.98;;;0.40;;
83151;SDS011;73381;58.502;8.624;2024-01-30T08:50:05;0.73;;;0.30;;
83151;SDS011;73381;58.502;8.624;2024-01-30T08:56:28;0.43;;;0.22;;
83151;SDS011;73381;58.502;8.624;2024-01-30T08:59:30;0.47;;;0.15;;
83151;SDS011;73381;58.502;8.624;2024-01-30T09:05:47;0.50;;;0.17;;
83151;SDS011;73381;58.502;8.624;2024-01-30T09:08:50;0.65;;;0.20;;
83151;SDS011;73381;58.502;8.624;2024-01-30T09:11:57;0.47;;;0.20;;
83151;SDS011;73381;58.502;8.624;2024-01-30T09:15:19;1.17;;;0.40;;
83151;SDS011;73381;58.502;8.624;2024-01-30T09:18:36;1.25;;;0.20;;
83151;SDS011;73381;58.502;8.624;2024-01-30T09:25:16;0.00;;;0.00;;
83151;SDS011;73381;58.502;8.624;2024-01-30T09:28:37;0.00;;;0.00;;
83151;SDS011;73381;58.502;8.624;2024-01-30T09:34:50;0.93;;;0.20;;
83151;SDS011;73381;58.502;8.624;2024-01-30T09:37:56;1.00;;;0.40;;
83151;SDS011;73381;58.502;8.624;2024-01-30T09:41:04;0.22;;;0.10;;
83151;SDS011;73381;58.502;8.624;2024-01-30T09:50:42;0.30;;;0.00;;
83151;SDS011;73381;58.502;8.624;2024-01-30T09:53:47;0.45;;;0.10;;
83151;SDS011;73381;58.502;8.624;2024-01-30T10:00:11;0.15;;;0.00;;
83151;SDS011;73381;58.502;8.624;2024-01-30T10:03:16;0.20;;;0.20;;
83151;SDS011;73381;58.502;8.624;2024-01-30T10:13:03;0.30;;;0.10;;
83151;SDS011;73381;58.502;8.624;2024-01-30T10:16:18;0.50;;;0.20;;
83151;SDS011;73381;58.502;8.624;2024-01-30T10:35:24;0.00;;;0.00;;
83151;SDS011;73381;58.502;8.624;2024-01-30T10:41:31;0.13;;;0.13;;
83151;SDS011;73381;58.502;8.624;2024-01-30T10:44:48;0.00;;;0.00;;
83151;SDS011;73381;58.502;8.624;2024-01-30T10:47:59;0.73;;;0.20;;
83151;SDS011;73381;58.502;8.624;2024-01-30T10:51:04;0.10;;;0.10;;
83151;SDS011;73381;58.502;8.624;2024-01-30T10:57:31;0.10;;;0.10;;
83151;SDS011;73381;58.502;8.624;2024-01-30T11:03:52;0.00;;;0.00;;
83151;SDS011;73381;58.502;8.624;2024-01-30T11:10:21;0.85;;;0.20;;
83151;SDS011;73381;58.502;8.624;2024-01-30T11:13:27;0.08;;;0.08;;
83151;SDS011;73381;58.502;8.624;2024-01-30T11:16:31;0.10;;;0.10;;
83151;SDS011;73381;58.502;8.624;2024-01-30T11:19:34;0.20;;;0.10;;
83151;SDS011;73381;58.502;8.624;2024-01-30T11:32:23;0.57;;;0.30;;
83151;SDS011;73381;58.502;8.624;2024-01-30T11:35:25;0.52;;;0.20;;
83151;SDS011;73381;58.502;8.624;2024-01-30T11:38:27;0.20;;;0.10;;
83151;SDS011;73381;58.502;8.624;2024-01-30T11:44:31;0.00;;;0.00;;
83151;SDS011;73381;58.502;8.624;2024-01-30T11:50:56;0.20;;;0.20;;
83151;SDS011;73381;58.502;8.624;2024-01-30T11:53:58;0.20;;;0.03;;
83151;SDS011;73381;58.502;8.624;2024-01-30T12:00:18;0.32;;;0.13;;
83151;SDS011;73381;58.502;8.624;2024-01-30T12:03:20;1.58;;;0.20;;
83151;SDS011;73381;58.502;8.624;2024-01-30T12:06:24;0.10;;;0.10;;
83151;SDS011;73381;58.502;8.624;2024-01-30T12:15:34;0.38;;;0.25;;
83151;SDS011;73381;58.502;8.624;2024-01-30T12:21:57;0.08;;;0.08;;
83151;SDS011;73381;58.502;8.624;2024-01-30T12:25:00;0.30;;;0.10;;
83151;SDS011;73381;58.502;8.624;2024-01-30T12:28:01;0.30;;;0.20;;
83151;SDS011;73381;58.502;8.624;2024-01-30T12:31:04;0.00;;;0.00;;
83151;SDS011;73381;58.502;8.624;2024-01-30T13:06:18;0.30;;;0.17;;
83151;SDS011;73381;58.502;8.624;2024-01-30T13:09:24;0.63;;;0.20;;
83151;SDS011;73381;58.502;8.624;2024-01-30T13:12:32;0.47;;;0.10;;
83151;SDS011;73381;58.502;8.624;2024-01-30T13:15:35;0.17;;;0.00;;
83151;SDS011;73381;58.502;8.624;2024-01-30T13:18:38;0.00;;;0.00;;
83151;SDS011;73381;58.502;8.624;2024-01-30T13:21:39;0.10;;;0.00;;
83151;SDS011;73381;58.502;8.624;2024-01-30T13:24:45;0.00;;;0.00;;
83151;SDS011;73381;58.502;8.624;2024-01-30T13:27:47;0.00;;;0.00;;
83151;SDS011;73381;58.502;8.624;2024-01-30T13:30:54;0.10;;;0.00;;
83151;SDS011;73381;58.502;8.624;2024-01-30T13:36:59;0.10;;;0.10;;
83151;SDS011;73381;58.502;8.624;2024-01-30T13:40:04;0.10;;;0.10;;
83151;SDS011;73381;58.502;8.624;2024-01-30T13:43:10;0.15;;;0.05;;
83151;SDS011;73381;58.502;8.624;2024-01-30T13:46:20;0.00;;;0.00;;
83151;SDS011;73381;58.502;8.624;2024-01-30T13:49:33;0.00;;;0.00;;
83151;SDS011;73381;58.502;8.624;2024-01-30T13:55:47;0.10;;;0.00;;
83151;SDS011;73381;58.502;8.624;2024-01-30T13:58:56;1.67;;;0.30;;
83151;SDS011;73381;58.502;8.624;2024-01-30T14:01:59;0.45;;;0.25;;
83151;SDS011;73381;58.502;8.624;2024-01-30T14:05:03;0.65;;;0.35;;
83151;SDS011;73381;58.502;8.624;2024-01-30T14:11:36;0.35;;;0.17;;
83151;SDS011;73381;58.502;8.624;2024-01-30T14:14:40;0.00;;;0.00;;
83151;SDS011;73381;58.502;8.624;2024-01-30T14:17:43;0.10;;;0.10;;
83151;SDS011;73381;58.502;8.624;2024-01-30T14:20:45;0.10;;;0.00;;
83151;SDS011;73381;58.502;8.624;2024-01-30T14:23:50;0.45;;;0.15;;
83151;SDS011;73381;58.502;8.624;2024-01-30T14:27:05;0.20;;;0.10;;
83151;SDS011;73381;58.502;8.624;2024-01-30T14:30:08;0.03;;;0.03;;
83151;SDS011;73381;58.502;8.624;2024-01-30T14:36:32;0.45;;;0.20;;
83151;SDS011;73381;58.502;8.624;2024-01-30T14:46:06;0.93;;;0.30;;
83151;SDS011;73381;58.502;8.624;2024-01-30T14:52:29;0.25;;;0.20;;
83151;SDS011;73381;58.502;8.624;2024-01-30T14:55:35;0.38;;;0.30;;
83151;SDS011;73381;58.502;8.624;2024-01-30T15:05:26;0.38;;;0.17;;
83151;SDS011;73381;58.502;8.624;2024-01-30T15:08:43;0.43;;;0.38;;
83151;SDS011;73381;58.502;8.624;2024-01-30T15:18:16;0.10;;;0.10;;
83151;SDS011;73381;58.502;8.624;2024-01-30T15:57:37;0.00;;;0.00;;
83151;SDS011;73381;58.502;8.624;2024-01-30T16:07:29;0.38;;;0.05;;
83151;SDS011;73381;58.502;8.624;2024-01-30T16:20:23;0.00;;;0.00;;
83151;SDS011;73381;58.502;8.624;2024-01-30T16:32:59;0.50;;;0.10;;
83151;SDS011;73381;58.502;8.624;2024-01-30T16:39:23;0.00;;;0.00;;
83151;SDS011;73381;58.502;8.624;2024-01-30T16:42:42;1.10;;;0.15;;
83151;SDS011;73381;58.502;8.624;2024-01-30T16:45:45;0.10;;;0.10;;
83151;SDS011;73381;58.502;8.624;2024-01-30T16:48:53;0.10;;;0.10;;
83151;SDS011;73381;58.502;8.624;2024-01-30T16:58:26;0.30;;;0.10;;
83151;SDS011;73381;58.502;8.624;2024-01-30T17:01:30;0.10;;;0.00;;
83151;SDS011;73381;58.502;8.624;2024-01-30T17:07:49;0.77;;;0.25;;
83151;SDS011;73381;58.502;8.624;2024-01-30T17:10:52;0.45;;;0.22;;
83151;SDS011;73381;58.502;8.624;2024-01-30T17:23:51;0.00;;;0.00;;
83151;SDS011;73381;58.502;8.624;2024-01-30T17:33:31;0.00;;;0.00;;
83151;SDS011;73381;58.502;8.624;2024-01-30T17:36:34;0.00;;;0.00;;
83151;SDS011;73381;58.502;8.624;2024-01-30T17:55:57;0.10;;;0.10;;
83151;SDS011;73381;58.502;8.624;2024-01-30T18:05:34;0.10;;;0.10;;
83151;SDS011;73381;58.502;8.624;2024-01-30T18:08:36;0.00;;;0.00;;
83151;SDS011;73381;58.502;8.624;2024-01-30T18:15:06;0.47;;;0.10;;
83151;SDS011;73381;58.502;8.624;2024-01-30T18:18:08;0.05;;;0.00;;
83151;SDS011;73381;58.502;8.624;2024-01-30T18:21:10;0.10;;;0.10;;
83151;SDS011;73381;58.502;8.624;2024-01-30T18:24:12;0.17;;;0.05;;
83151;SDS011;73381;58.502;8.624;2024-01-30T18:27:14;0.55;;;0.20;;
83151;SDS011;73381;58.502;8.624;2024-01-30T18:30:20;0.00;;;0.00;;
83151;SDS011;73381;58.502;8.624;2024-01-30T18:36:52;0.00;;;0.00;;
83151;SDS011;73381;58.502;8.624;2024-01-30T18:40:04;0.00;;;0.00;;
83151;SDS011;73381;58.502;8.624;2024-01-30T18:43:08;0.00;;;0.00;;
83151;SDS011;73381;58.502;8.624;2024-01-30T18:49:23;0.00;;;0.00;;
83151;SDS011;73381;58.502;8.624;2024-01-30T18:52:28;0.00;;;0.00;;
83151;SDS011;73381;58.502;8.624;2024-01-30T18:55:41;0.00;;;0.00;;
83151;SDS011;73381;58.502;8.624;2024-01-30T18:58:50;0.00;;;0.00;;
83151;SDS011;73381;58.502;8.624;2024-01-30T19:01:56;0.45;;;0.10;;
83151;SDS011;73381;58.502;8.624;2024-01-30T19:05:22;0.47;;;0.10;;
83151;SDS011;73381;58.502;8.624;2024-01-30T19:08:25;0.47;;;0.25;;
83151;SDS011;73381;58.502;8.624;2024-01-30T19:11:27;0.55;;;0.15;;
83151;SDS011;73381;58.502;8.624;2024-01-30T19:14:29;2.63;;;2.25;;
83151;SDS011;73381;58.502;8.624;2024-01-30T19:17:48;1.10;;;0.40;;
83151;SDS011;73381;58.502;8.624;2024-01-30T19:21:10;0.57;;;0.20;;
83151;SDS011;73381;58.502;8.624;2024-01-30T19:24:12;0.57;;;0.10;;
83151;SDS011;73381;58.502;8.624;2024-01-30T19:27:13;0.40;;;0.17;;
83151;SDS011;73381;58.502;8.624;2024-01-30T19:30:15;1.90;;;0.60;;
83151;SDS011;73381;58.502;8.624;2024-01-30T19:33:18;1.92;;;0.45;;
83151;SDS011;73381;58.502;8.624;2024-01-30T19:36:24;0.95;;;0.30;;
83151;SDS011;73381;58.502;8.624;2024-01-30T19:39:26;2.72;;;0.50;;
83151;SDS011;73381;58.502;8.624;2024-01-30T19:42:38;1.85;;;0.70;;
83151;SDS011;73381;58.502;8.624;2024-01-30T19:45:39;1.27;;;0.70;;
83151;SDS011;73381;58.502;8.624;2024-01-30T19:51:51;1.33;;;0.60;;
83151;SDS011;73381;58.502;8.624;2024-01-30T19:54:53;2.00;;;0.63;;
83151;SDS011;73381;58.502;8.624;2024-01-30T19:57:57;2.13;;;0.50;;
83151;SDS011;73381;58.502;8.624;2024-01-30T20:01:04;1.27;;;0.50;;
83151;SDS011;73381;58.502;8.624;2024-01-30T20:04:09;1.88;;;0.43;;
83151;SDS011;73381;58.502;8.624;2024-01-30T20:07:39;0.43;;;0.10;;
83151;SDS011;73381;58.502;8.624;2024-01-30T20:10:41;0.13;;;0.10;;
83151;SDS011;73381;58.502;8.624;2024-01-30T20:13:44;2.20;;;0.52;;
83151;SDS011;73381;58.502;8.624;2024-01-30T20:16:47;0.85;;;0.40;;
83151;SDS011;73381;58.502;8.624;2024-01-30T20:20:11;9.98;;;9.32;;
83151;SDS011;73381;58.502;8.624;2024-01-30T20:23:15;0.00;;;0.00;;
83151;SDS011;73381;58.502;8.624;2024-01-30T20:26:17;0.10;;;0.00;;
83151;SDS011;73381;58.502;8.624;2024-01-30T20:29:19;0.00;;;0.00;;
83151;SDS011;73381;58.502;8.624;2024-01-30T20:32:21;0.10;;;0.00;;
83151;SDS011;73381;58.502;8.624;2024-01-30T20:35:25;0.00;;;0.00;;
83151;SDS011;73381;58.502;8.624;2024-01-30T20:38:29;0.00;;;0.00;;
83151;SDS011;73381;58.502;8.624;2024-01-30T20:41:35;0.20;;;0.00;;
83151;SDS011;73381;58.502;8.624;2024-01-30T20:44:41;0.00;;;0.00;;
83151;SDS011;73381;58.502;8.624;2024-01-30T20:48:08;0.00;;;0.00;;
83151;SDS011;73381;58.502;8.624;2024-01-30T20:51:10;0.00;;;0.00;;
83151;SDS011;73381;58.502;8.624;2024-01-30T20:54:15;0.10;;;0.00;;
83151;SDS011;73381;58.502;8.624;2024-01-30T20:57:20;0.10;;;0.00;;
83151;SDS011;73381;58.502;8.624;2024-01-30T21:00:33;0.05;;;0.00;;
83151;SDS011;73381;58.502;8.624;2024-01-30T21:06:50;0.20;;;0.10;;
83151;SDS011;73381;58.502;8.624;2024-01-30T21:09:53;0.20;;;0.03;;
83151;SDS011;73381;58.502;8.624;2024-01-30T21:12:56;0.00;;;0.00;;
83151;SDS011;73381;58.502;8.624;2024-01-30T21:16:03;0.00;;;0.00;;
83151;SDS011;73381;58.502;8.624;2024-01-30T21:22:27;0.00;;;0.00;;
83151;SDS011;73381;58.502;8.624;2024-01-30T21:25:31;0.10;;;0.00;;
83151;SDS011;73381;58.502;8.624;2024-01-30T21:28:34;0.00;;;0.00;;
83151;SDS011;73381;58.502;8.624;2024-01-30T21:35:12;0.00;;;0.00;;
83151;SDS011;73381;58.502;8.624;2024-01-30T21:44:39;0.00;;;0.00;;
83151;SDS011;73381;58.502;8.624;2024-01-30T21:47:56;0.00;;;0.00;;
83151;SDS011;73381;58.502;8.624;2024-01-30T21:50:58;0.00;;;0.00;;
83151;SDS011;73381;58.502;8.624;2024-01-30T21:54:00;0.00;;;0.00;;
83151;SDS011;73381;58.502;8.624;2024-01-30T21:57:01;0.08;;;0.08;;
83151;SDS011;73381;58.502;8.624;2024-01-30T22:09:57;0.00;;;0.00;;
83151;SDS011;73381;58.502;8.624;2024-01-30T22:12:58;0.00;;;0.00;;
83151;SDS011;73381;58.502;8.624;2024-01-30T22:16:01;0.00;;;0.00;;
83151;SDS011;73381;58.502;8.624;2024-01-30T22:19:03;0.00;;;0.00;;
83151;SDS011;73381;58.502;8.624;2024-01-30T22:22:05;0.00;;;0.00;;
83151;SDS011;73381;58.502;8.624;2024-01-30T22:28:18;0.00;;;0.00;;
83151;SDS011;73381;58.502;8.624;2024-01-30T22:31:20;0.00;;;0.00;;
83151;SDS011;73381;58.502;8.624;2024-01-30T22:34:21;0.00;;;0.00;;
83151;SDS011;73381;58.502;8.624;2024-01-30T22:37:25;0.00;;;0.00;;
83151;SDS011;73381;58.502;8.624;2024-01-30T22:40:27;0.00;;;0.00;;
83151;SDS011;73381;58.502;8.624;2024-01-30T22:50:00;0.00;;;0.00;;
83151;SDS011;73381;58.502;8.624;2024-01-30T22:53:02;0.00;;;0.00;;
83151;SDS011;73381;58.502;8.624;2024-01-30T22:59:10;0.00;;;0.00;;
83151;SDS011;73381;58.502;8.624;2024-01-30T23:08:52;0.00;;;0.00;;
83151;SDS011;73381;58.502;8.624;2024-01-30T23:15:05;0.00;;;0.00;;
83151;SDS011;73381;58.502;8.624;2024-01-30T23:24:41;0.00;;;0.00;;
83151;SDS011;73381;58.502;8.624;2024-01-30T23:27:44;0.10;;;0.00;;
83151;SDS011;73381;58.502;8.624;2024-01-30T23:30:46;0.00;;;0.00;;
83151;SDS011;73381;58.502;8.624;2024-01-30T23:33:49;0.00;;;0.00;;
83151;SDS011;73381;58.502;8.624;2024-01-30T23:37:05;0.00;;;0.00;;
83151;SDS011;73381;58.502;8.624;2024-01-30T23:40:10;0.30;;;0.10;;
83151;SDS011;73381;58.502;8.624;2024-01-30T23:43:13;0.00;;;0.00;;
83151;SDS011;73381;58.502;8.624;2024-01-30T23:46:15;0.00;;;0.00;;
83151;SDS011;73381;58.502;8.624;2024-01-30T23:49:19;0.00;;;0.00;;
83151;SDS011;73381;58.502;8.624;2024-01-30T23:52:24;0.00;;;0.00;;
83151;SDS011;73381;58.502;8.624;2024-01-30T23:55:34;0.10;;;0.00;;
83151;SDS011;73381;58.502;8.624;2024-01-30T23:58:36;0.00;;;0.00;;
